sensor_id;sensor_type;location;lat;lon;timestamp;pressure;altitude;pressure_sealevel;temperature;humidity
39949;BME280;29070;48.102;-1.652;2023-09-19T00:02:23;101271.75;;;15.34;70.31
39949;BME280;29070;48.102;-1.652;2023-09-19T00:07:23;101266.88;;;15.31;70.57
39949;BME280;29070;48.102;-1.652;2023-09-19T00:12:24;101263.66;;;15.29;70.75
39949;BME280;29070;48.102;-1.652;2023-09-19T00:17:24;101274.22;;;15.29;70.65
39949;BME280;29070;48.102;-1.652;2023-09-19T00:22:25;101266.31;;;15.22;70.92
39949;BME280;29070;48.102;-1.652;2023-09-19T00:27:26;101264.91;;;15.19;71.21
39949;BME280;29070;48.102;-1.652;2023-09-19T00:32:28;101259.03;;;15.17;71.10
39949;BME280;29070;48.102;-1.652;2023-09-19T00:37:32;101261.69;;;15.17;71.33
39949;BME280;29070;48.102;-1.652;2023-09-19T00:42:32;101264.16;;;15.12;71.61
39949;BME280;29070;48.102;-1.652;2023-09-19T00:47:33;101264.75;;;15.14;71.60
39949;BME280;29070;48.102;-1.652;2023-09-19T00:52:37;101256.81;;;15.14;71.67
39949;BME280;29070;48.102;-1.652;2023-09-19T00:57:38;101261.50;;;15.12;71.78
39949;BME280;29070;48.102;-1.652;2023-09-19T01:02:39;101267.00;;;15.11;71.87
39949;BME280;29070;48.102;-1.652;2023-09-19T01:07:39;101262.75;;;15.10;72.04
39949;BME280;29070;48.102;-1.652;2023-09-19T01:12:49;101257.47;;;15.10;72.03
39949;BME280;29070;48.102;-1.652;2023-09-19T01:18:02;101269.63;;;15.11;72.48
39949;BME280;29070;48.102;-1.652;2023-09-19T01:23:18;101274.75;;;15.05;72.47
39949;BME280;29070;48.102;-1.652;2023-09-19T01:28:30;101271.50;;;15.03;72.47
39949;BME280;29070;48.102;-1.652;2023-09-19T01:33:56;101273.56;;;15.01;72.58
39949;BME280;29070;48.102;-1.652;2023-09-19T01:38:58;101274.81;;;14.99;72.38
39949;BME280;29070;48.102;-1.652;2023-09-19T01:44:09;101266.25;;;14.97;72.58
39949;BME280;29070;48.102;-1.652;2023-09-19T01:49:48;101273.56;;;14.95;72.89
39949;BME280;29070;48.102;-1.652;2023-09-19T01:54:52;101265.84;;;14.93;72.62
39949;BME280;29070;48.102;-1.652;2023-09-19T01:59:59;101274.03;;;14.92;72.74
39949;BME280;29070;48.102;-1.652;2023-09-19T02:05:01;101272.97;;;14.93;72.82
39949;BME280;29070;48.102;-1.652;2023-09-19T02:10:05;101266.28;;;14.90;72.91
39949;BME280;29070;48.102;-1.652;2023-09-19T02:15:06;101264.28;;;14.85;72.92
39949;BME280;29070;48.102;-1.652;2023-09-19T02:20:07;101267.50;;;14.87;72.70
39949;BME280;29070;48.102;-1.652;2023-09-19T02:25:10;101269.16;;;14.89;72.94
39949;BME280;29070;48.102;-1.652;2023-09-19T02:30:11;101260.19;;;14.90;72.87
39949;BME280;29070;48.102;-1.652;2023-09-19T02:35:12;101265.91;;;14.86;72.95
39949;BME280;29070;48.102;-1.652;2023-09-19T02:40:15;101266.13;;;14.78;73.20
39949;BME280;29070;48.102;-1.652;2023-09-19T02:45:26;101257.41;;;14.78;73.05
39949;BME280;29070;48.102;-1.652;2023-09-19T02:50:26;101252.13;;;14.78;73.36
39949;BME280;29070;48.102;-1.652;2023-09-19T02:55:26;101248.66;;;14.77;73.23
39949;BME280;29070;48.102;-1.652;2023-09-19T03:00:28;101237.47;;;14.75;73.39
39949;BME280;29070;48.102;-1.652;2023-09-19T03:05:28;101247.22;;;14.75;73.22
39949;BME280;29070;48.102;-1.652;2023-09-19T03:10:31;101255.97;;;14.75;73.42
39949;BME280;29070;48.102;-1.652;2023-09-19T03:15:32;101259.84;;;14.73;73.28
39949;BME280;29070;48.102;-1.652;2023-09-19T03:20:32;101254.78;;;14.71;73.10
39949;BME280;29070;48.102;-1.652;2023-09-19T03:25:36;101243.59;;;14.69;73.40
39949;BME280;29070;48.102;-1.652;2023-09-19T03:30:36;101250.94;;;14.67;73.46
39949;BME280;29070;48.102;-1.652;2023-09-19T03:35:39;101254.97;;;14.70;73.30
39949;BME280;29070;48.102;-1.652;2023-09-19T03:40:40;101256.22;;;14.67;73.59
39949;BME280;29070;48.102;-1.652;2023-09-19T03:45:40;101256.22;;;14.67;73.47
39949;BME280;29070;48.102;-1.652;2023-09-19T03:50:41;101251.34;;;14.64;73.59
39949;BME280;29070;48.102;-1.652;2023-09-19T03:55:41;101244.41;;;14.63;73.50
39949;BME280;29070;48.102;-1.652;2023-09-19T04:00:41;101247.31;;;14.61;73.41
39949;BME280;29070;48.102;-1.652;2023-09-19T04:05:42;101243.41;;;14.64;73.83
39949;BME280;29070;48.102;-1.652;2023-09-19T04:10:43;101238.72;;;14.73;73.79
39949;BME280;29070;48.102;-1.652;2023-09-19T04:15:46;101238.72;;;14.73;74.12
39949;BME280;29070;48.102;-1.652;2023-09-19T04:20:50;101223.44;;;14.75;73.97
39949;BME280;29070;48.102;-1.652;2023-09-19T04:25:50;101224.69;;;14.72;73.89
39949;BME280;29070;48.102;-1.652;2023-09-19T04:30:51;101227.34;;;14.72;73.75
39949;BME280;29070;48.102;-1.652;2023-09-19T04:35:51;101227.34;;;14.72;73.88
39949;BME280;29070;48.102;-1.652;2023-09-19T04:40:56;101218.78;;;14.70;74.11
39949;BME280;29070;48.102;-1.652;2023-09-19T04:45:57;101229.78;;;14.74;74.13
39949;BME280;29070;48.102;-1.652;2023-09-19T04:51:00;101219.41;;;14.72;74.36
39949;BME280;29070;48.102;-1.652;2023-09-19T04:56:00;101228.13;;;14.73;74.25
39949;BME280;29070;48.102;-1.652;2023-09-19T05:01:01;101228.56;;;14.70;74.49
39949;BME280;29070;48.102;-1.652;2023-09-19T05:06:02;101227.16;;;14.67;74.62
39949;BME280;29070;48.102;-1.652;2023-09-19T05:11:03;101233.44;;;14.66;74.71
39949;BME280;29070;48.102;-1.652;2023-09-19T05:16:03;101228.56;;;14.63;74.77
39949;BME280;29070;48.102;-1.652;2023-09-19T05:21:04;101225.53;;;14.66;74.66
39949;BME280;29070;48.102;-1.652;2023-09-19T05:26:04;101221.69;;;14.62;74.55
39949;BME280;29070;48.102;-1.652;2023-09-19T05:31:05;101232.66;;;14.59;74.43
39949;BME280;29070;48.102;-1.652;2023-09-19T05:36:05;101226.94;;;14.55;74.44
39949;BME280;29070;48.102;-1.652;2023-09-19T05:41:06;101230.84;;;14.53;74.50
39949;BME280;29070;48.102;-1.652;2023-09-19T05:46:07;101238.75;;;14.53;74.51
39949;BME280;29070;48.102;-1.652;2023-09-19T05:51:08;101236.13;;;14.53;74.73
39949;BME280;29070;48.102;-1.652;2023-09-19T05:56:09;101233.03;;;14.56;74.84
39949;BME280;29070;48.102;-1.652;2023-09-19T06:01:11;101237.53;;;14.55;74.85
39949;BME280;29070;48.102;-1.652;2023-09-19T06:06:11;101239.97;;;14.57;74.98
39949;BME280;29070;48.102;-1.652;2023-09-19T06:11:11;101233.47;;;14.53;75.10
39949;BME280;29070;48.102;-1.652;2023-09-19T06:16:12;101233.88;;;14.49;75.20
39949;BME280;29070;48.102;-1.652;2023-09-19T06:21:13;101233.69;;;14.51;75.20
39949;BME280;29070;48.102;-1.652;2023-09-19T06:26:13;101233.03;;;14.56;75.23
39949;BME280;29070;48.102;-1.652;2023-09-19T06:31:14;101238.97;;;14.58;75.51
39949;BME280;29070;48.102;-1.652;2023-09-19T06:36:14;101236.09;;;14.66;75.35
39949;BME280;29070;48.102;-1.652;2023-09-19T06:41:15;101234.63;;;14.70;75.51
39949;BME280;29070;48.102;-1.652;2023-09-19T06:46:17;101229.19;;;14.65;75.57
39949;BME280;29070;48.102;-1.652;2023-09-19T06:51:18;101226.56;;;14.65;75.60
39949;BME280;29070;48.102;-1.652;2023-09-19T06:56:18;101233.59;;;14.84;75.76
39949;BME280;29070;48.102;-1.652;2023-09-19T07:01:19;101231.28;;;14.95;75.68
39949;BME280;29070;48.102;-1.652;2023-09-19T07:06:20;101230.97;;;15.16;75.55
39949;BME280;29070;48.102;-1.652;2023-09-19T07:11:20;101233.91;;;15.33;75.61
39949;BME280;29070;48.102;-1.652;2023-09-19T07:16:21;101220.28;;;15.36;75.69
39949;BME280;29070;48.102;-1.652;2023-09-19T07:21:29;101226.16;;;15.38;75.42
39949;BME280;29070;48.102;-1.652;2023-09-19T07:26:30;101226.97;;;15.39;75.26
39949;BME280;29070;48.102;-1.652;2023-09-19T07:31:31;101215.97;;;15.42;75.12
39949;BME280;29070;48.102;-1.652;2023-09-19T07:36:31;101218.91;;;15.52;75.30
39949;BME280;29070;48.102;-1.652;2023-09-19T07:41:33;101219.84;;;15.64;75.39
39949;BME280;29070;48.102;-1.652;2023-09-19T07:46:33;101223.38;;;15.84;75.21
39949;BME280;29070;48.102;-1.652;2023-09-19T07:51:33;101215.25;;;16.04;75.15
39949;BME280;29070;48.102;-1.652;2023-09-19T07:56:34;101213.59;;;16.28;75.33
39949;BME280;29070;48.102;-1.652;2023-09-19T08:01:34;101219.09;;;16.45;75.08
39949;BME280;29070;48.102;-1.652;2023-09-19T08:06:35;101211.72;;;16.65;75.19
39949;BME280;29070;48.102;-1.652;2023-09-19T08:11:38;101207.16;;;16.72;74.73
39949;BME280;29070;48.102;-1.652;2023-09-19T08:16:39;101208.28;;;16.95;74.76
39949;BME280;29070;48.102;-1.652;2023-09-19T08:21:40;101214.94;;;17.16;74.56
39949;BME280;29070;48.102;-1.652;2023-09-19T08:26:40;101219.94;;;17.36;74.31
39949;BME280;29070;48.102;-1.652;2023-09-19T08:31:40;101220.56;;;17.50;74.26
39949;BME280;29070;48.102;-1.652;2023-09-19T08:36:41;101217.31;;;17.60;74.37
39949;BME280;29070;48.102;-1.652;2023-09-19T08:41:43;101207.53;;;17.60;73.88
39949;BME280;29070;48.102;-1.652;2023-09-19T08:46:44;101209.63;;;17.82;73.85
39949;BME280;29070;48.102;-1.652;2023-09-19T08:51:45;101197.59;;;18.15;73.75
39949;BME280;29070;48.102;-1.652;2023-09-19T08:56:46;101206.19;;;18.45;73.10
39949;BME280;29070;48.102;-1.652;2023-09-19T09:01:47;101199.84;;;18.75;72.58
39949;BME280;29070;48.102;-1.652;2023-09-19T09:06:49;101191.75;;;19.28;72.67
39949;BME280;29070;48.102;-1.652;2023-09-19T09:11:53;101205.56;;;19.75;71.94
39949;BME280;29070;48.102;-1.652;2023-09-19T09:16:56;101202.75;;;20.04;71.45
39949;BME280;29070;48.102;-1.652;2023-09-19T09:22:07;101196.06;;;20.46;70.54
39949;BME280;29070;48.102;-1.652;2023-09-19T09:27:11;101194.63;;;20.82;70.25
39949;BME280;29070;48.102;-1.652;2023-09-19T09:32:37;101201.03;;;20.81;69.79
39949;BME280;29070;48.102;-1.652;2023-09-19T09:37:42;101201.72;;;20.99;69.18
39949;BME280;29070;48.102;-1.652;2023-09-19T09:42:43;101195.66;;;21.03;69.08
39949;BME280;29070;48.102;-1.652;2023-09-19T09:47:47;101191.09;;;21.04;68.98
39949;BME280;29070;48.102;-1.652;2023-09-19T09:52:57;101196.34;;;20.93;68.34
39949;BME280;29070;48.102;-1.652;2023-09-19T09:58:18;101188.88;;;20.95;66.84
39949;BME280;29070;48.102;-1.652;2023-09-19T10:03:19;101190.03;;;21.05;67.63
39949;BME280;29070;48.102;-1.652;2023-09-19T10:08:23;101194.28;;;21.33;67.48
39949;BME280;29070;48.102;-1.652;2023-09-19T10:13:28;101181.03;;;21.11;66.75
39949;BME280;29070;48.102;-1.652;2023-09-19T10:18:33;101170.75;;;20.98;66.50
39949;BME280;29070;48.102;-1.652;2023-09-19T10:23:38;101170.28;;;21.06;66.63
39949;BME280;29070;48.102;-1.652;2023-09-19T10:28:40;101163.84;;;21.34;66.04
39949;BME280;29070;48.102;-1.652;2023-09-19T10:33:42;101155.31;;;21.80;65.35
39949;BME280;29070;48.102;-1.652;2023-09-19T10:38:43;101159.25;;;22.20;64.83
39949;BME280;29070;48.102;-1.652;2023-09-19T10:43:48;101148.72;;;22.81;63.53
39949;BME280;29070;48.102;-1.652;2023-09-19T10:48:50;101150.31;;;22.67;62.75
39949;BME280;29070;48.102;-1.652;2023-09-19T10:53:54;101145.47;;;22.59;61.94
39949;BME280;29070;48.102;-1.652;2023-09-19T10:59:18;101147.91;;;22.71;60.69
39949;BME280;29070;48.102;-1.652;2023-09-19T11:04:32;101150.81;;;22.64;60.44
39949;BME280;29070;48.102;-1.652;2023-09-19T11:09:55;101139.06;;;22.60;59.67
39949;BME280;29070;48.102;-1.652;2023-09-19T11:14:59;101140.94;;;22.80;60.73
39949;BME280;29070;48.102;-1.652;2023-09-19T11:30:31;101143.38;;;23.12;59.41
39949;BME280;29070;48.102;-1.652;2023-09-19T11:36:11;101128.38;;;22.91;57.80
39949;BME280;29070;48.102;-1.652;2023-09-19T11:46:29;101107.50;;;23.03;58.71
39949;BME280;29070;48.102;-1.652;2023-09-19T11:51:40;101117.41;;;23.02;56.20
39949;BME280;29070;48.102;-1.652;2023-09-19T11:56:41;101105.31;;;23.41;57.46
39949;BME280;29070;48.102;-1.652;2023-09-19T12:01:50;101099.38;;;23.59;56.01
39949;BME280;29070;48.102;-1.652;2023-09-19T12:06:58;101109.34;;;23.49;53.92
39949;BME280;29070;48.102;-1.652;2023-09-19T12:11:58;101124.31;;;23.45;56.35
39949;BME280;29070;48.102;-1.652;2023-09-19T12:16:59;101117.38;;;23.38;56.27
39949;BME280;29070;48.102;-1.652;2023-09-19T12:22:02;101118.22;;;23.29;56.14
39949;BME280;29070;48.102;-1.652;2023-09-19T12:27:05;101103.47;;;23.26;56.10
39949;BME280;29070;48.102;-1.652;2023-09-19T12:32:06;101118.22;;;23.13;56.14
39949;BME280;29070;48.102;-1.652;2023-09-19T12:37:11;101109.09;;;23.04;55.51
39949;BME280;29070;48.102;-1.652;2023-09-19T12:42:12;101110.69;;;23.00;55.76
39949;BME280;29070;48.102;-1.652;2023-09-19T12:47:17;101116.59;;;23.02;55.95
39949;BME280;29070;48.102;-1.652;2023-09-19T12:52:20;101124.66;;;23.02;55.57
39949;BME280;29070;48.102;-1.652;2023-09-19T12:57:26;101116.06;;;22.95;55.58
39949;BME280;29070;48.102;-1.652;2023-09-19T13:02:27;101116.31;;;22.78;55.23
39949;BME280;29070;48.102;-1.652;2023-09-19T13:07:44;101097.88;;;22.66;54.97
39949;BME280;29070;48.102;-1.652;2023-09-19T13:12:47;101105.06;;;22.60;55.14
39949;BME280;29070;48.102;-1.652;2023-09-19T13:17:48;101092.22;;;22.52;55.18
39949;BME280;29070;48.102;-1.652;2023-09-19T13:22:49;101094.66;;;22.54;55.36
39949;BME280;29070;48.102;-1.652;2023-09-19T13:27:55;101086.06;;;22.52;55.28
39949;BME280;29070;48.102;-1.652;2023-09-19T13:33:11;101078.84;;;22.47;54.51
39949;BME280;29070;48.102;-1.652;2023-09-19T13:38:14;101080.44;;;22.53;55.30
39949;BME280;29070;48.102;-1.652;2023-09-19T13:43:14;101093.06;;;22.73;55.10
39949;BME280;29070;48.102;-1.652;2023-09-19T13:48:15;101096.25;;;22.85;55.07
39949;BME280;29070;48.102;-1.652;2023-09-19T13:53:15;101085.53;;;22.85;54.99
39949;BME280;29070;48.102;-1.652;2023-09-19T13:58:16;101090.63;;;22.87;55.17
39949;BME280;29070;48.102;-1.652;2023-09-19T14:03:17;101082.34;;;22.83;54.68
39949;BME280;29070;48.102;-1.652;2023-09-19T14:08:17;101086.91;;;22.83;54.66
39949;BME280;29070;48.102;-1.652;2023-09-19T14:13:17;101088.50;;;23.05;54.18
39949;BME280;29070;48.102;-1.652;2023-09-19T14:18:18;101080.19;;;22.91;54.10
39949;BME280;29070;48.102;-1.652;2023-09-19T14:23:18;101080.19;;;22.85;54.11
39949;BME280;29070;48.102;-1.652;2023-09-19T14:28:19;101070.56;;;22.95;53.54
39949;BME280;29070;48.102;-1.652;2023-09-19T14:33:19;101057.16;;;23.15;53.83
39949;BME280;29070;48.102;-1.652;2023-09-19T14:38:19;101051.25;;;22.98;53.53
39949;BME280;29070;48.102;-1.652;2023-09-19T14:43:19;101053.69;;;22.89;53.76
39949;BME280;29070;48.102;-1.652;2023-09-19T14:48:20;101056.66;;;22.77;53.63
39949;BME280;29070;48.102;-1.652;2023-09-19T14:53:23;101051.03;;;22.63;53.79
39949;BME280;29070;48.102;-1.652;2023-09-19T14:58:25;101039.53;;;22.63;53.56
39949;BME280;29070;48.102;-1.652;2023-09-19T15:03:26;101032.03;;;22.65;53.85
39949;BME280;29070;48.102;-1.652;2023-09-19T15:08:26;101035.78;;;22.54;53.73
39949;BME280;29070;48.102;-1.652;2023-09-19T15:13:26;101038.47;;;22.43;53.64
39949;BME280;29070;48.102;-1.652;2023-09-19T15:18:30;101025.09;;;22.43;53.54
39949;BME280;29070;48.102;-1.652;2023-09-19T15:23:33;101027.22;;;22.46;53.72
39949;BME280;29070;48.102;-1.652;2023-09-19T15:28:34;101030.97;;;22.56;53.76
39949;BME280;29070;48.102;-1.652;2023-09-19T15:33:35;101032.84;;;22.50;53.58
39949;BME280;29070;48.102;-1.652;2023-09-19T15:39:01;101023.47;;;22.53;53.41
39949;BME280;29070;48.102;-1.652;2023-09-19T15:44:03;101016.25;;;22.48;53.52
39949;BME280;29070;48.102;-1.652;2023-09-19T15:49:03;101027.22;;;22.31;53.54
39949;BME280;29070;48.102;-1.652;2023-09-19T15:54:11;101017.03;;;22.18;53.08
39949;BME280;29070;48.102;-1.652;2023-09-19T15:59:14;101018.84;;;22.07;53.40
39949;BME280;29070;48.102;-1.652;2023-09-19T16:04:17;101023.94;;;22.08;53.62
39949;BME280;29070;48.102;-1.652;2023-09-19T16:09:17;101010.28;;;22.05;53.82
39949;BME280;29070;48.102;-1.652;2023-09-19T16:14:18;101006.81;;;21.99;53.68
39949;BME280;29070;48.102;-1.652;2023-09-19T16:19:18;101006.28;;;22.02;53.91
39949;BME280;29070;48.102;-1.652;2023-09-19T16:24:19;101003.06;;;21.95;53.92
39949;BME280;29070;48.102;-1.652;2023-09-19T16:29:19;100994.75;;;21.86;53.62
39949;BME280;29070;48.102;-1.652;2023-09-19T16:34:24;101000.34;;;21.80;54.14
39949;BME280;29070;48.102;-1.652;2023-09-19T16:39:25;101008.91;;;21.77;54.45
39949;BME280;29070;48.102;-1.652;2023-09-19T16:44:26;101001.41;;;21.74;54.37
39949;BME280;29070;48.102;-1.652;2023-09-19T16:49:27;101007.28;;;21.70;54.13
39949;BME280;29070;48.102;-1.652;2023-09-19T16:54:28;101007.22;;;21.60;54.55
39949;BME280;29070;48.102;-1.652;2023-09-19T16:59:30;101001.59;;;21.51;54.90
39949;BME280;29070;48.102;-1.652;2023-09-19T17:04:30;101003.91;;;21.38;54.56
39949;BME280;29070;48.102;-1.652;2023-09-19T17:09:31;100998.53;;;21.27;54.71
39949;BME280;29070;48.102;-1.652;2023-09-19T17:14:35;100992.06;;;21.18;55.14
39949;BME280;29070;48.102;-1.652;2023-09-19T17:19:35;101000.56;;;21.10;55.38
39949;BME280;29070;48.102;-1.652;2023-09-19T17:24:36;101003.16;;;21.00;55.47
39949;BME280;29070;48.102;-1.652;2023-09-19T17:29:36;101007.91;;;20.87;55.34
39949;BME280;29070;48.102;-1.652;2023-09-19T17:34:36;101006.00;;;20.83;55.80
39949;BME280;29070;48.102;-1.652;2023-09-19T17:39:37;100998.22;;;20.76;56.04
39949;BME280;29070;48.102;-1.652;2023-09-19T17:44:37;100999.75;;;20.67;56.18
39949;BME280;29070;48.102;-1.652;2023-09-19T17:49:38;101001.25;;;20.57;56.40
39949;BME280;29070;48.102;-1.652;2023-09-19T17:54:39;100990.00;;;20.50;56.30
39949;BME280;29070;48.102;-1.652;2023-09-19T17:59:39;100988.03;;;20.41;56.73
39949;BME280;29070;48.102;-1.652;2023-09-19T18:04:39;100982.09;;;20.33;56.89
39949;BME280;29070;48.102;-1.652;2023-09-19T18:09:40;100977.50;;;20.24;57.00
39949;BME280;29070;48.102;-1.652;2023-09-19T18:14:41;100985.69;;;20.17;57.38
39949;BME280;29070;48.102;-1.652;2023-09-19T18:19:41;100985.66;;;20.12;57.62
39949;BME280;29070;48.102;-1.652;2023-09-19T18:24:42;100982.09;;;20.01;58.24
39949;BME280;29070;48.102;-1.652;2023-09-19T18:29:42;100979.88;;;19.93;58.85
39949;BME280;29070;48.102;-1.652;2023-09-19T18:34:45;100971.84;;;19.88;59.06
39949;BME280;29070;48.102;-1.652;2023-09-19T18:39:45;100970.75;;;19.84;59.42
39949;BME280;29070;48.102;-1.652;2023-09-19T18:44:46;100976.00;;;19.78;59.79
39949;BME280;29070;48.102;-1.652;2023-09-19T18:49:46;100976.41;;;19.70;60.09
39949;BME280;29070;48.102;-1.652;2023-09-19T18:54:48;100973.19;;;19.68;60.11
39949;BME280;29070;48.102;-1.652;2023-09-19T18:59:49;100977.13;;;19.60;60.58
39949;BME280;29070;48.102;-1.652;2023-09-19T19:04:50;100983.72;;;19.58;60.92
39949;BME280;29070;48.102;-1.652;2023-09-19T19:09:51;100987.16;;;19.53;61.11
39949;BME280;29070;48.102;-1.652;2023-09-19T19:14:52;100985.22;;;19.49;61.25
39949;BME280;29070;48.102;-1.652;2023-09-19T19:19:53;100982.31;;;19.50;61.72
39949;BME280;29070;48.102;-1.652;2023-09-19T19:24:54;100979.91;;;19.49;61.89
39949;BME280;29070;48.102;-1.652;2023-09-19T19:29:56;100978.78;;;19.45;62.22
39949;BME280;29070;48.102;-1.652;2023-09-19T19:34:56;100991.78;;;19.41;62.44
39949;BME280;29070;48.102;-1.652;2023-09-19T19:39:56;100986.41;;;19.36;62.80
39949;BME280;29070;48.102;-1.652;2023-09-19T19:44:57;100983.91;;;19.29;62.92
39949;BME280;29070;48.102;-1.652;2023-09-19T19:49:58;100981.63;;;19.16;63.10
39949;BME280;29070;48.102;-1.652;2023-09-19T19:54:59;100985.81;;;19.12;63.21
39949;BME280;29070;48.102;-1.652;2023-09-19T19:59:59;100979.38;;;19.08;63.66
39949;BME280;29070;48.102;-1.652;2023-09-19T20:05:00;100983.00;;;19.01;63.92
39949;BME280;29070;48.102;-1.652;2023-09-19T20:10:07;100981.31;;;18.95;64.21
39949;BME280;29070;48.102;-1.652;2023-09-19T20:15:08;100976.75;;;18.91;64.46
39949;BME280;29070;48.102;-1.652;2023-09-19T20:20:11;100986.75;;;18.83;64.52
39949;BME280;29070;48.102;-1.652;2023-09-19T20:25:18;100984.78;;;18.79;64.50
39949;BME280;29070;48.102;-1.652;2023-09-19T20:30:18;100979.38;;;18.74;64.59
39949;BME280;29070;48.102;-1.652;2023-09-19T20:35:19;100978.75;;;18.66;65.04
39949;BME280;29070;48.102;-1.652;2023-09-19T20:40:20;100971.97;;;18.59;65.18
39949;BME280;29070;48.102;-1.652;2023-09-19T20:45:24;100965.53;;;18.55;65.50
39949;BME280;29070;48.102;-1.652;2023-09-19T20:50:24;100965.69;;;18.48;65.91
39949;BME280;29070;48.102;-1.652;2023-09-19T20:55:26;100969.06;;;18.43;65.96
39949;BME280;29070;48.102;-1.652;2023-09-19T21:00:27;100963.44;;;18.40;66.38
39949;BME280;29070;48.102;-1.652;2023-09-19T21:05:27;100959.41;;;18.37;66.58
39949;BME280;29070;48.102;-1.652;2023-09-19T21:10:28;100956.91;;;18.31;66.80
39949;BME280;29070;48.102;-1.652;2023-09-19T21:15:29;100956.34;;;18.28;66.95
39949;BME280;29070;48.102;-1.652;2023-09-19T21:20:32;100943.53;;;18.25;67.27
39949;BME280;29070;48.102;-1.652;2023-09-19T21:25:34;100951.97;;;18.22;67.64
39949;BME280;29070;48.102;-1.652;2023-09-19T21:30:34;100944.84;;;18.23;67.88
39949;BME280;29070;48.102;-1.652;2023-09-19T21:35:44;100936.03;;;18.22;68.60
39949;BME280;29070;48.102;-1.652;2023-09-19T21:40:45;100945.16;;;18.26;68.08
39949;BME280;29070;48.102;-1.652;2023-09-19T21:45:45;100942.50;;;18.26;68.22
39949;BME280;29070;48.102;-1.652;2023-09-19T21:50:54;100929.13;;;18.21;68.85
39949;BME280;29070;48.102;-1.652;2023-09-19T21:55:59;100919.94;;;18.12;68.91
39949;BME280;29070;48.102;-1.652;2023-09-19T22:01:01;100914.31;;;18.08;68.79
39949;BME280;29070;48.102;-1.652;2023-09-19T22:06:06;100902.78;;;18.03;68.85
39949;BME280;29070;48.102;-1.652;2023-09-19T22:11:08;100907.50;;;18.01;69.00
39949;BME280;29070;48.102;-1.652;2023-09-19T22:16:13;100900.28;;;17.96;69.39
39949;BME280;29070;48.102;-1.652;2023-09-19T22:21:14;100898.91;;;17.94;69.62
39949;BME280;29070;48.102;-1.652;2023-09-19T22:26:22;100907.69;;;17.94;69.57
39949;BME280;29070;48.102;-1.652;2023-09-19T22:31:24;100895.13;;;17.89;69.71
39949;BME280;29070;48.102;-1.652;2023-09-19T22:36:28;100901.72;;;17.87;70.08
39949;BME280;29070;48.102;-1.652;2023-09-19T22:41:32;100895.22;;;17.83;70.07
39949;BME280;29070;48.102;-1.652;2023-09-19T22:46:34;100881.06;;;17.77;70.41
39949;BME280;29070;48.102;-1.652;2023-09-19T22:51:34;100882.59;;;17.73;70.62
39949;BME280;29070;48.102;-1.652;2023-09-19T22:56:46;100885.25;;;17.73;70.71
39949;BME280;29070;48.102;-1.652;2023-09-19T23:01:52;100881.53;;;17.74;70.83
39949;BME280;29070;48.102;-1.652;2023-09-19T23:06:52;100875.75;;;17.77;71.08
39949;BME280;29070;48.102;-1.652;2023-09-19T23:11:54;100866.53;;;17.80;71.29
39949;BME280;29070;48.102;-1.652;2023-09-19T23:16:55;100870.31;;;17.84;71.40
39949;BME280;29070;48.102;-1.652;2023-09-19T23:22:00;100862.91;;;17.86;71.27
39949;BME280;29070;48.102;-1.652;2023-09-19T23:27:14;100857.13;;;17.89;71.63
39949;BME280;29070;48.102;-1.652;2023-09-19T23:32:24;100844.44;;;17.91;71.73
39949;BME280;29070;48.102;-1.652;2023-09-19T23:37:25;100829.19;;;17.86;71.67
39949;BME280;29070;48.102;-1.652;2023-09-19T23:42:25;100829.69;;;17.83;71.58
39949;BME280;29070;48.102;-1.652;2023-09-19T23:47:27;100839.13;;;17.79;71.88
39949;BME280;29070;48.102;-1.652;2023-09-19T23:52:28;100837.00;;;17.76;72.03
39949;BME280;29070;48.102;-1.652;2023-09-19T23:57:28;100821.06;;;17.76;72.13
